Terminal Aerodrome Forecast
Issued by NWS

Home | Current Version | Previous Version | Text Only | Print | Product List | Glossary On
Versions: 1 2 3 4 5 6 7 8 9 10 11 12 13 14 15 16 17 18 19 20 21 22 23 24 25 26 27 28 29 30 31 32 33 34 35 36 37 38 39 40 41 42 43 44
000
FTUS43 KLOT 070304 AAB
TAFORD
TAF AMD
KORD 070304Z 0703/0806 07005KT 6SM HZ FEW090 SCT250
     FM070700 14005KT 6SM BR SCT250
     FM071400 19012G19KT P6SM FEW040
     FM071700 20016G24KT P6SM SCT050
     FM080100 19011KT P6SM BKN250=

USA.gov is the U.S. government's official web portal to all federal, state and local government web resources and services.